Home   Weather   Morocco   Marrakech   Past weeks
Flag for Morocco

Past Weather in Marrakech, Morocco — Yesterday and Last 2 Weeks

Currently: 73 °F. Clear. (Weather station: Marrakech Airport, Morocco). See more current weather

Past Weather in Marrakech — Graph

°F

Marrakech Temperature Yesterday

Maximum temperature yesterday: 79 °F (at 4:30 pm)
Minimum temperature yesterday: 55 °F (at 6:30 am)
Average temperature yesterday: 67 °F

High & Low Weather Summary for the Past Weeks

 TemperatureHumidityPressure
High95 °F (Oct 18, 3:30 pm)94% (Oct 26, 4:30 am)30.21 "Hg (Oct 26, 4:30 am)
Low54 °F (Oct 23, 7:30 am)15% (Oct 18, 4:00 pm)29.95 "Hg (Oct 13, 3:00 pm)
Average73 °F51%30.06 "Hg
* Reported Oct 13 11:00 am — Oct 28 11:30 am, Marrakech. Weather by CustomWeather, © 2021

Note: Actual official high and low records may vary slightly from our data, if they occured in-between our weather recording intervals... More about our weather records

Marrakech Weather History for the Previous 24 Hours

Scroll right to see more
 ConditionsComfort  
Time TempWeatherWind HumidityBarometerVisibility
11:30 am
Thu, Oct 28
73 °FClear.2 mph57%30.04 "Hg5 mi
11:00 am72 °FClear.3 mph61%30.04 "Hg5 mi
10:00 am66 °FPassing clouds.2 mph78%30.04 "Hg5 mi
9:30 am64 °FPassing clouds.2 mph73%30.04 "Hg5 mi
9:00 am63 °FPassing clouds.3 mph77%30.04 "Hg5 mi
8:30 am61 °FPassing clouds.3 mph83%30.01 "Hg5 mi
8:00 am57 °FPassing clouds.No wind82%30.01 "Hg5 mi
7:30 am57 °FScattered clouds.2 mph82%30.01 "Hg5 mi
7:00 am57 °FScattered clouds.5 mph82%29.98 "Hg5 mi
6:30 am57 °FPassing clouds.3 mph82%29.98 "Hg5 mi
6:00 am57 °FPassing clouds.No wind82%29.98 "Hg5 mi
5:30 am57 °FPassing clouds.1 mph88%29.98 "Hg5 mi
5:00 am59 °FPassing clouds.2 mph82%29.98 "Hg5 mi
4:30 am59 °FPassing clouds.1 mph88%29.98 "Hg5 mi
4:00 am59 °FPassing clouds.1 mph82%29.98 "Hg5 mi
3:30 am63 °FPassing clouds.3 mph77%29.98 "Hg5 mi
3:00 am63 °FPassing clouds.3 mph83%29.98 "Hg5 mi
2:30 am63 °FPassing clouds.5 mph77%29.98 "Hg5 mi
2:00 am64 °FPassing clouds.6 mph73%30.01 "Hg5 mi
1:30 am64 °FPassing clouds.5 mph73%30.01 "Hg5 mi
1:00 am64 °FPassing clouds.5 mph68%30.01 "Hg5 mi
12:30 am63 °FPassing clouds.3 mph68%30.01 "Hg5 mi
12:00 am64 °FPassing clouds.2 mph64%30.01 "Hg5 mi
11:30 pm
Wed, Oct 27
66 °FPassing clouds.3 mph64%30.01 "Hg5 mi
11:00 pm68 °FPassing clouds.3 mph60%30.01 "Hg5 mi
10:30 pm70 °FPassing clouds.6 mph53%30.01 "Hg5 mi
10:00 pm68 °FPassing clouds.3 mph56%30.01 "Hg5 mi
9:30 pm68 °FPassing clouds.3 mph56%30.01 "Hg5 mi
9:00 pm70 °FPassing clouds.2 mph53%30.01 "Hg5 mi
8:30 pm70 °FPassing clouds.3 mph53%30.01 "Hg5 mi
8:00 pm72 °FPassing clouds.3 mph50%29.98 "Hg5 mi
7:30 pm73 °FPassing clouds.5 mph50%29.98 "Hg5 mi
7:00 pm75 °FPassing clouds.5 mph47%29.98 "Hg5 mi
6:30 pm75 °FPassing clouds.6 mph47%29.98 "Hg5 mi
6:00 pm77 °FPassing clouds.6 mph44%29.98 "Hg5 mi
5:30 pm79 °FPassing clouds.3 mph42%29.95 "Hg5 mi
5:00 pm79 °FPassing clouds.2 mph42%29.95 "Hg5 mi
4:30 pm79 °FPassing clouds.2 mph42%29.95 "Hg5 mi
4:00 pm77 °FPassing clouds.3 mph44%29.95 "Hg5 mi
3:30 pm77 °FPassing clouds.5 mph44%29.98 "Hg5 mi
3:00 pm77 °FPassing clouds.5 mph47%29.98 "Hg4 mi
2:30 pm77 °FPassing clouds.5 mph51%29.98 "Hg4 mi
2:00 pm75 °FPassing clouds.5 mph50%30.01 "Hg4 mi
1:30 pm73 °FPassing clouds.6 mph53%30.01 "Hg4 mi
1:00 pm73 °FPassing clouds.3 mph57%30.01 "Hg4 mi
12:00 pm70 °FPassing clouds.3 mph64%30.04 "Hg4 mi
Weather by CustomWeather, © 2021

See weather overview